sensor_id;sensor_type;location;lat;lon;timestamp;P1;durP1;ratioP1;P2;durP2;ratioP2
32826;SDS011;51059;42.058;27.986;2023-02-05T00:02:05;8.70;;;4.80;;
32826;SDS011;51059;42.058;27.986;2023-02-05T00:04:32;8.33;;;5.03;;
32826;SDS011;51059;42.058;27.986;2023-02-05T00:06:58;8.90;;;5.57;;
32826;SDS011;51059;42.058;27.986;2023-02-05T00:09:23;12.67;;;4.97;;
32826;SDS011;51059;42.058;27.986;2023-02-05T00:11:49;6.53;;;4.60;;
32826;SDS011;51059;42.058;27.986;2023-02-05T00:14:14;5.43;;;2.97;;
32826;SDS011;51059;42.058;27.986;2023-02-05T00:16:40;6.57;;;2.93;;
32826;SDS011;51059;42.058;27.986;2023-02-05T00:19:05;5.10;;;3.60;;
32826;SDS011;51059;42.058;27.986;2023-02-05T00:21:31;5.53;;;3.43;;
32826;SDS011;51059;42.058;27.986;2023-02-05T00:23:56;5.47;;;3.10;;
32826;SDS011;51059;42.058;27.986;2023-02-05T00:26:22;5.77;;;3.67;;
32826;SDS011;51059;42.058;27.986;2023-02-05T00:28:48;5.67;;;3.40;;
32826;SDS011;51059;42.058;27.986;2023-02-05T00:31:14;5.27;;;3.33;;
32826;SDS011;51059;42.058;27.986;2023-02-05T00:33:41;5.67;;;3.63;;
32826;SDS011;51059;42.058;27.986;2023-02-05T00:36:08;4.67;;;3.17;;
32826;SDS011;51059;42.058;27.986;2023-02-05T00:38:34;5.50;;;3.63;;
32826;SDS011;51059;42.058;27.986;2023-02-05T00:41:00;5.17;;;3.63;;
32826;SDS011;51059;42.058;27.986;2023-02-05T00:43:26;3.83;;;2.87;;
32826;SDS011;51059;42.058;27.986;2023-02-05T00:45:52;4.93;;;3.40;;
32826;SDS011;51059;42.058;27.986;2023-02-05T00:48:17;9.47;;;3.37;;
32826;SDS011;51059;42.058;27.986;2023-02-05T00:50:43;3.80;;;2.70;;
32826;SDS011;51059;42.058;27.986;2023-02-05T00:53:08;5.23;;;2.60;;
32826;SDS011;51059;42.058;27.986;2023-02-05T00:55:34;6.70;;;2.73;;
32826;SDS011;51059;42.058;27.986;2023-02-05T00:58:00;6.63;;;2.70;;
32826;SDS011;51059;42.058;27.986;2023-02-05T01:00:25;5.03;;;2.07;;
32826;SDS011;51059;42.058;27.986;2023-02-05T01:02:52;4.40;;;2.27;;
32826;SDS011;51059;42.058;27.986;2023-02-05T01:05:18;5.67;;;2.70;;
32826;SDS011;51059;42.058;27.986;2023-02-05T01:07:44;6.77;;;2.57;;
32826;SDS011;51059;42.058;27.986;2023-02-05T01:10:10;11.27;;;2.83;;
32826;SDS011;51059;42.058;27.986;2023-02-05T01:12:35;8.60;;;3.30;;
32826;SDS011;51059;42.058;27.986;2023-02-05T01:15:01;5.53;;;2.53;;
32826;SDS011;51059;42.058;27.986;2023-02-05T01:17:28;14.40;;;3.83;;
32826;SDS011;51059;42.058;27.986;2023-02-05T01:19:54;13.43;;;4.83;;
32826;SDS011;51059;42.058;27.986;2023-02-05T01:22:19;11.40;;;5.17;;
32826;SDS011;51059;42.058;27.986;2023-02-05T01:24:45;14.37;;;4.73;;
32826;SDS011;51059;42.058;27.986;2023-02-05T01:27:11;17.07;;;4.03;;
32826;SDS011;51059;42.058;27.986;2023-02-05T01:29:36;13.50;;;4.07;;
32826;SDS011;51059;42.058;27.986;2023-02-05T01:32:02;10.60;;;3.30;;
32826;SDS011;51059;42.058;27.986;2023-02-05T01:34:27;12.10;;;3.73;;
32826;SDS011;51059;42.058;27.986;2023-02-05T01:36:53;12.90;;;3.37;;
32826;SDS011;51059;42.058;27.986;2023-02-05T01:39:19;13.13;;;4.17;;
32826;SDS011;51059;42.058;27.986;2023-02-05T01:41:44;9.83;;;3.77;;
32826;SDS011;51059;42.058;27.986;2023-02-05T01:44:14;14.60;;;4.50;;
32826;SDS011;51059;42.058;27.986;2023-02-05T01:46:45;9.87;;;4.50;;
32826;SDS011;51059;42.058;27.986;2023-02-05T01:51:55;18.47;;;5.30;;
32826;SDS011;51059;42.058;27.986;2023-02-05T01:54:24;12.43;;;4.03;;
32826;SDS011;51059;42.058;27.986;2023-02-05T01:56:52;14.00;;;4.70;;
32826;SDS011;51059;42.058;27.986;2023-02-05T01:59:22;14.57;;;5.13;;
32826;SDS011;51059;42.058;27.986;2023-02-05T02:01:51;11.53;;;4.83;;
32826;SDS011;51059;42.058;27.986;2023-02-05T02:04:30;17.53;;;5.40;;
32826;SDS011;51059;42.058;27.986;2023-02-05T02:07:10;11.53;;;5.07;;
32826;SDS011;51059;42.058;27.986;2023-02-05T02:09:41;20.23;;;4.20;;
32826;SDS011;51059;42.058;27.986;2023-02-05T02:12:08;17.53;;;5.30;;
32826;SDS011;51059;42.058;27.986;2023-02-05T02:14:34;20.77;;;5.10;;
32826;SDS011;51059;42.058;27.986;2023-02-05T02:17:01;22.57;;;5.93;;
32826;SDS011;51059;42.058;27.986;2023-02-05T02:19:30;10.33;;;5.03;;
32826;SDS011;51059;42.058;27.986;2023-02-05T02:30:42;17.83;;;5.97;;
32826;SDS011;51059;42.058;27.986;2023-02-05T02:35:57;11.33;;;5.60;;
32826;SDS011;51059;42.058;27.986;2023-02-05T02:40:54;11.03;;;5.87;;
32826;SDS011;51059;42.058;27.986;2023-02-05T02:43:51;19.77;;;6.93;;
32826;SDS011;51059;42.058;27.986;2023-02-05T02:47:02;18.80;;;6.73;;
32826;SDS011;51059;42.058;27.986;2023-02-05T02:49:11;32.47;;;8.10;;
32826;SDS011;51059;42.058;27.986;2023-02-05T02:51:43;18.33;;;7.27;;
32826;SDS011;51059;42.058;27.986;2023-02-05T02:54:10;23.43;;;8.03;;
32826;SDS011;51059;42.058;27.986;2023-02-05T02:56:38;15.83;;;6.47;;
32826;SDS011;51059;42.058;27.986;2023-02-05T02:59:07;22.50;;;7.93;;
32826;SDS011;51059;42.058;27.986;2023-02-05T03:01:37;17.73;;;6.93;;
32826;SDS011;51059;42.058;27.986;2023-02-05T03:04:08;22.67;;;7.37;;
32826;SDS011;51059;42.058;27.986;2023-02-05T03:06:37;17.17;;;7.07;;
32826;SDS011;51059;42.058;27.986;2023-02-05T03:09:09;18.17;;;7.10;;
32826;SDS011;51059;42.058;27.986;2023-02-05T03:11:37;27.20;;;9.90;;
32826;SDS011;51059;42.058;27.986;2023-02-05T03:14:03;18.23;;;7.07;;
32826;SDS011;51059;42.058;27.986;2023-02-05T03:16:29;28.80;;;9.57;;
32826;SDS011;51059;42.058;27.986;2023-02-05T03:18:55;20.30;;;7.63;;
32826;SDS011;51059;42.058;27.986;2023-02-05T03:21:26;33.83;;;11.00;;
32826;SDS011;51059;42.058;27.986;2023-02-05T03:23:54;26.60;;;9.97;;
32826;SDS011;51059;42.058;27.986;2023-02-05T03:28:49;25.83;;;8.60;;
32826;SDS011;51059;42.058;27.986;2023-02-05T03:31:17;18.17;;;7.40;;
32826;SDS011;51059;42.058;27.986;2023-02-05T03:53:52;25.13;;;8.83;;
32826;SDS011;51059;42.058;27.986;2023-02-05T03:56:34;22.60;;;9.17;;
32826;SDS011;51059;42.058;27.986;2023-02-05T03:59:13;25.33;;;9.77;;
32826;SDS011;51059;42.058;27.986;2023-02-05T04:01:41;29.07;;;9.80;;
32826;SDS011;51059;42.058;27.986;2023-02-05T04:04:08;29.23;;;7.80;;
32826;SDS011;51059;42.058;27.986;2023-02-05T04:06:34;22.20;;;9.17;;
32826;SDS011;51059;42.058;27.986;2023-02-05T04:08:59;24.63;;;8.50;;
32826;SDS011;51059;42.058;27.986;2023-02-05T04:11:25;19.77;;;6.83;;
32826;SDS011;51059;42.058;27.986;2023-02-05T04:13:51;30.70;;;9.00;;
32826;SDS011;51059;42.058;27.986;2023-02-05T04:16:16;20.87;;;9.80;;
32826;SDS011;51059;42.058;27.986;2023-02-05T04:18:42;20.27;;;7.63;;
32826;SDS011;51059;42.058;27.986;2023-02-05T04:21:07;41.90;;;11.50;;
32826;SDS011;51059;42.058;27.986;2023-02-05T04:23:33;34.83;;;10.77;;
32826;SDS011;51059;42.058;27.986;2023-02-05T04:25:58;28.80;;;10.93;;
32826;SDS011;51059;42.058;27.986;2023-02-05T04:28:24;37.40;;;11.67;;
32826;SDS011;51059;42.058;27.986;2023-02-05T04:30:50;39.47;;;11.30;;
32826;SDS011;51059;42.058;27.986;2023-02-05T04:33:15;25.73;;;11.33;;
32826;SDS011;51059;42.058;27.986;2023-02-05T04:35:41;23.87;;;10.80;;
32826;SDS011;51059;42.058;27.986;2023-02-05T04:38:06;27.63;;;12.40;;
32826;SDS011;51059;42.058;27.986;2023-02-05T04:40:32;30.13;;;11.30;;
32826;SDS011;51059;42.058;27.986;2023-02-05T04:42:58;30.10;;;11.90;;
32826;SDS011;51059;42.058;27.986;2023-02-05T04:45:23;24.40;;;10.33;;
32826;SDS011;51059;42.058;27.986;2023-02-05T04:47:55;25.77;;;8.53;;
32826;SDS011;51059;42.058;27.986;2023-02-05T04:50:21;29.90;;;11.27;;
32826;SDS011;51059;42.058;27.986;2023-02-05T04:52:47;35.93;;;10.93;;
32826;SDS011;51059;42.058;27.986;2023-02-05T04:55:12;28.77;;;10.47;;
32826;SDS011;51059;42.058;27.986;2023-02-05T04:57:38;28.80;;;10.53;;
32826;SDS011;51059;42.058;27.986;2023-02-05T05:00:03;42.07;;;11.30;;
32826;SDS011;51059;42.058;27.986;2023-02-05T05:02:30;31.03;;;11.20;;
32826;SDS011;51059;42.058;27.986;2023-02-05T05:04:55;21.83;;;9.00;;
32826;SDS011;51059;42.058;27.986;2023-02-05T05:07:21;29.20;;;10.80;;
32826;SDS011;51059;42.058;27.986;2023-02-05T05:09:47;31.10;;;11.87;;
32826;SDS011;51059;42.058;27.986;2023-02-05T05:12:12;24.30;;;9.70;;
32826;SDS011;51059;42.058;27.986;2023-02-05T05:14:38;17.30;;;8.00;;
32826;SDS011;51059;42.058;27.986;2023-02-05T05:17:04;34.90;;;11.50;;
32826;SDS011;51059;42.058;27.986;2023-02-05T05:19:29;28.90;;;10.40;;
32826;SDS011;51059;42.058;27.986;2023-02-05T05:21:55;46.80;;;13.63;;
32826;SDS011;51059;42.058;27.986;2023-02-05T05:24:21;28.10;;;10.63;;
32826;SDS011;51059;42.058;27.986;2023-02-05T05:26:46;34.20;;;11.57;;
32826;SDS011;51059;42.058;27.986;2023-02-05T05:29:13;24.37;;;10.50;;
32826;SDS011;51059;42.058;27.986;2023-02-05T05:31:39;28.37;;;11.00;;
32826;SDS011;51059;42.058;27.986;2023-02-05T05:34:05;30.77;;;9.70;;
32826;SDS011;51059;42.058;27.986;2023-02-05T05:36:30;23.00;;;10.63;;
32826;SDS011;51059;42.058;27.986;2023-02-05T05:38:56;24.43;;;9.17;;
32826;SDS011;51059;42.058;27.986;2023-02-05T05:41:41;25.07;;;10.83;;
32826;SDS011;51059;42.058;27.986;2023-02-05T05:44:25;28.73;;;11.20;;
32826;SDS011;51059;42.058;27.986;2023-02-05T05:46:51;31.57;;;10.87;;
32826;SDS011;51059;42.058;27.986;2023-02-05T05:49:16;33.00;;;12.37;;
32826;SDS011;51059;42.058;27.986;2023-02-05T05:51:42;26.83;;;9.17;;
32826;SDS011;51059;42.058;27.986;2023-02-05T05:54:07;30.23;;;10.07;;
32826;SDS011;51059;42.058;27.986;2023-02-05T05:56:33;24.10;;;10.30;;
32826;SDS011;51059;42.058;27.986;2023-02-05T05:59:00;15.57;;;7.67;;
32826;SDS011;51059;42.058;27.986;2023-02-05T06:01:26;27.80;;;10.80;;
32826;SDS011;51059;42.058;27.986;2023-02-05T06:03:52;21.10;;;8.93;;
32826;SDS011;51059;42.058;27.986;2023-02-05T06:06:17;33.67;;;10.87;;
32826;SDS011;51059;42.058;27.986;2023-02-05T06:08:43;26.00;;;8.60;;
32826;SDS011;51059;42.058;27.986;2023-02-05T06:11:09;26.60;;;10.73;;
32826;SDS011;51059;42.058;27.986;2023-02-05T06:13:34;27.63;;;10.27;;
32826;SDS011;51059;42.058;27.986;2023-02-05T06:16:00;25.83;;;9.03;;
32826;SDS011;51059;42.058;27.986;2023-02-05T06:18:26;26.13;;;9.80;;
32826;SDS011;51059;42.058;27.986;2023-02-05T06:20:52;30.03;;;12.13;;
32826;SDS011;51059;42.058;27.986;2023-02-05T06:23:17;25.80;;;8.50;;
32826;SDS011;51059;42.058;27.986;2023-02-05T06:25:43;35.57;;;12.93;;
32826;SDS011;51059;42.058;27.986;2023-02-05T06:28:09;39.63;;;14.03;;
32826;SDS011;51059;42.058;27.986;2023-02-05T06:30:35;35.10;;;11.60;;
32826;SDS011;51059;42.058;27.986;2023-02-05T06:33:00;33.17;;;9.87;;
32826;SDS011;51059;42.058;27.986;2023-02-05T06:35:26;37.93;;;13.47;;
32826;SDS011;51059;42.058;27.986;2023-02-05T06:37:52;31.53;;;8.73;;
32826;SDS011;51059;42.058;27.986;2023-02-05T06:40:17;25.67;;;10.47;;
32826;SDS011;51059;42.058;27.986;2023-02-05T06:42:46;31.57;;;10.63;;
32826;SDS011;51059;42.058;27.986;2023-02-05T06:45:12;30.70;;;11.00;;
32826;SDS011;51059;42.058;27.986;2023-02-05T06:47:38;28.07;;;9.03;;
32826;SDS011;51059;42.058;27.986;2023-02-05T06:50:04;49.37;;;10.17;;
32826;SDS011;51059;42.058;27.986;2023-02-05T06:52:30;20.57;;;10.03;;
32826;SDS011;51059;42.058;27.986;2023-02-05T06:54:56;19.13;;;9.27;;
32826;SDS011;51059;42.058;27.986;2023-02-05T07:12:36;28.93;;;11.87;;
32826;SDS011;51059;42.058;27.986;2023-02-05T07:15:02;18.07;;;8.33;;
32826;SDS011;51059;42.058;27.986;2023-02-05T07:17:28;25.27;;;11.23;;
32826;SDS011;51059;42.058;27.986;2023-02-05T07:19:53;25.27;;;9.27;;
32826;SDS011;51059;42.058;27.986;2023-02-05T07:22:19;27.83;;;9.57;;
32826;SDS011;51059;42.058;27.986;2023-02-05T07:24:44;21.00;;;10.40;;
32826;SDS011;51059;42.058;27.986;2023-02-05T07:27:10;35.20;;;11.80;;
32826;SDS011;51059;42.058;27.986;2023-02-05T07:29:35;38.33;;;12.57;;
32826;SDS011;51059;42.058;27.986;2023-02-05T07:32:01;22.97;;;9.70;;
32826;SDS011;51059;42.058;27.986;2023-02-05T07:34:27;32.17;;;11.77;;
32826;SDS011;51059;42.058;27.986;2023-02-05T07:36:52;21.50;;;9.33;;
32826;SDS011;51059;42.058;27.986;2023-02-05T07:39:18;26.00;;;10.40;;
32826;SDS011;51059;42.058;27.986;2023-02-05T07:41:44;23.93;;;10.37;;
32826;SDS011;51059;42.058;27.986;2023-02-05T07:44:09;19.83;;;8.97;;
32826;SDS011;51059;42.058;27.986;2023-02-05T07:46:35;33.23;;;11.70;;
32826;SDS011;51059;42.058;27.986;2023-02-05T07:49:01;33.60;;;10.90;;
32826;SDS011;51059;42.058;27.986;2023-02-05T07:51:26;30.93;;;11.23;;
32826;SDS011;51059;42.058;27.986;2023-02-05T07:53:52;17.97;;;7.97;;
32826;SDS011;51059;42.058;27.986;2023-02-05T07:56:18;17.97;;;8.50;;
32826;SDS011;51059;42.058;27.986;2023-02-05T07:58:46;20.60;;;8.07;;
32826;SDS011;51059;42.058;27.986;2023-02-05T08:01:12;32.37;;;9.90;;
32826;SDS011;51059;42.058;27.986;2023-02-05T08:03:38;18.13;;;9.50;;
32826;SDS011;51059;42.058;27.986;2023-02-05T08:06:04;24.87;;;8.53;;
32826;SDS011;51059;42.058;27.986;2023-02-05T08:08:31;19.00;;;9.03;;
32826;SDS011;51059;42.058;27.986;2023-02-05T08:10:57;33.80;;;10.13;;
32826;SDS011;51059;42.058;27.986;2023-02-05T08:13:24;18.80;;;8.27;;
32826;SDS011;51059;42.058;27.986;2023-02-05T08:15:49;24.80;;;11.00;;
32826;SDS011;51059;42.058;27.986;2023-02-05T08:18:15;25.63;;;9.80;;
32826;SDS011;51059;42.058;27.986;2023-02-05T08:20:41;28.73;;;10.00;;
32826;SDS011;51059;42.058;27.986;2023-02-05T08:23:06;39.00;;;11.67;;
32826;SDS011;51059;42.058;27.986;2023-02-05T08:25:32;15.40;;;7.93;;
32826;SDS011;51059;42.058;27.986;2023-02-05T08:27:57;27.67;;;10.03;;
32826;SDS011;51059;42.058;27.986;2023-02-05T08:30:23;29.17;;;11.20;;
32826;SDS011;51059;42.058;27.986;2023-02-05T08:32:49;22.53;;;10.00;;
32826;SDS011;51059;42.058;27.986;2023-02-05T08:35:15;24.67;;;8.33;;
32826;SDS011;51059;42.058;27.986;2023-02-05T08:37:41;20.60;;;8.43;;
32826;SDS011;51059;42.058;27.986;2023-02-05T08:40:07;24.33;;;8.27;;
32826;SDS011;51059;42.058;27.986;2023-02-05T08:42:33;15.57;;;7.73;;
32826;SDS011;51059;42.058;27.986;2023-02-05T08:44:59;23.40;;;9.00;;
32826;SDS011;51059;42.058;27.986;2023-02-05T08:47:25;21.63;;;8.03;;
32826;SDS011;51059;42.058;27.986;2023-02-05T08:49:51;23.90;;;8.17;;
32826;SDS011;51059;42.058;27.986;2023-02-05T08:52:17;16.57;;;6.93;;
32826;SDS011;51059;42.058;27.986;2023-02-05T08:54:43;29.03;;;9.20;;
32826;SDS011;51059;42.058;27.986;2023-02-05T08:57:08;26.97;;;7.70;;
32826;SDS011;51059;42.058;27.986;2023-02-05T08:59:34;21.23;;;9.03;;
32826;SDS011;51059;42.058;27.986;2023-02-05T09:02:00;21.70;;;8.03;;
32826;SDS011;51059;42.058;27.986;2023-02-05T09:04:26;23.20;;;8.40;;
32826;SDS011;51059;42.058;27.986;2023-02-05T09:06:52;30.17;;;9.67;;
32826;SDS011;51059;42.058;27.986;2023-02-05T09:09:18;19.20;;;8.27;;
32826;SDS011;51059;42.058;27.986;2023-02-05T09:11:44;13.77;;;6.03;;
32826;SDS011;51059;42.058;27.986;2023-02-05T09:14:11;17.97;;;7.37;;
32826;SDS011;51059;42.058;27.986;2023-02-05T09:16:37;23.73;;;8.73;;
32826;SDS011;51059;42.058;27.986;2023-02-05T09:19:03;19.93;;;8.37;;
32826;SDS011;51059;42.058;27.986;2023-02-05T09:21:29;22.80;;;7.93;;
32826;SDS011;51059;42.058;27.986;2023-02-05T09:23:55;20.07;;;8.40;;
32826;SDS011;51059;42.058;27.986;2023-02-05T09:26:21;25.97;;;6.50;;
32826;SDS011;51059;42.058;27.986;2023-02-05T09:28:47;15.97;;;6.90;;
32826;SDS011;51059;42.058;27.986;2023-02-05T09:31:14;18.27;;;8.03;;
32826;SDS011;51059;42.058;27.986;2023-02-05T09:33:41;18.87;;;8.07;;
32826;SDS011;51059;42.058;27.986;2023-02-05T09:36:14;21.97;;;7.87;;
32826;SDS011;51059;42.058;27.986;2023-02-05T09:38:44;12.70;;;5.90;;
32826;SDS011;51059;42.058;27.986;2023-02-05T09:43:42;21.37;;;8.40;;
32826;SDS011;51059;42.058;27.986;2023-02-05T09:46:16;18.43;;;7.83;;
32826;SDS011;51059;42.058;27.986;2023-02-05T09:48:47;29.83;;;9.13;;
32826;SDS011;51059;42.058;27.986;2023-02-05T09:51:17;17.07;;;6.63;;
32826;SDS011;51059;42.058;27.986;2023-02-05T09:53:50;17.33;;;6.80;;
32826;SDS011;51059;42.058;27.986;2023-02-05T09:56:22;17.97;;;7.40;;
32826;SDS011;51059;42.058;27.986;2023-02-05T09:58:49;20.00;;;6.70;;
32826;SDS011;51059;42.058;27.986;2023-02-05T10:04:07;14.87;;;6.53;;
32826;SDS011;51059;42.058;27.986;2023-02-05T10:15:16;17.80;;;7.10;;
32826;SDS011;51059;42.058;27.986;2023-02-05T10:26:31;23.70;;;6.83;;
32826;SDS011;51059;42.058;27.986;2023-02-05T10:31:43;20.93;;;6.47;;
32826;SDS011;51059;42.058;27.986;2023-02-05T10:37:11;10.73;;;5.23;;
32826;SDS011;51059;42.058;27.986;2023-02-05T10:39:42;20.17;;;5.70;;
32826;SDS011;51059;42.058;27.986;2023-02-05T10:44:58;13.87;;;5.93;;
32826;SDS011;51059;42.058;27.986;2023-02-05T10:50:22;16.20;;;5.40;;
32826;SDS011;51059;42.058;27.986;2023-02-05T10:52:51;20.20;;;5.23;;
32826;SDS011;51059;42.058;27.986;2023-02-05T10:55:17;15.30;;;5.83;;
32826;SDS011;51059;42.058;27.986;2023-02-05T10:57:43;14.13;;;6.27;;
32826;SDS011;51059;42.058;27.986;2023-02-05T11:00:13;23.83;;;5.90;;
32826;SDS011;51059;42.058;27.986;2023-02-05T11:02:45;14.47;;;5.33;;
32826;SDS011;51059;42.058;27.986;2023-02-05T11:08:00;14.03;;;4.10;;
32826;SDS011;51059;42.058;27.986;2023-02-05T11:10:31;16.27;;;4.83;;
32826;SDS011;51059;42.058;27.986;2023-02-05T11:13:01;11.50;;;4.70;;
32826;SDS011;51059;42.058;27.986;2023-02-05T11:15:30;20.40;;;5.43;;
32826;SDS011;51059;42.058;27.986;2023-02-05T11:18:00;15.57;;;5.40;;
32826;SDS011;51059;42.058;27.986;2023-02-05T11:20:29;14.27;;;4.90;;
32826;SDS011;51059;42.058;27.986;2023-02-05T11:25:33;13.43;;;5.27;;
32826;SDS011;51059;42.058;27.986;2023-02-05T11:28:00;17.83;;;5.07;;
32826;SDS011;51059;42.058;27.986;2023-02-05T11:30:32;11.83;;;4.53;;
32826;SDS011;51059;42.058;27.986;2023-02-05T11:33:22;12.67;;;4.27;;
32826;SDS011;51059;42.058;27.986;2023-02-05T11:36:03;11.50;;;4.47;;
32826;SDS011;51059;42.058;27.986;2023-02-05T11:40:58;17.70;;;5.30;;
32826;SDS011;51059;42.058;27.986;2023-02-05T11:43:35;13.00;;;4.90;;
32826;SDS011;51059;42.058;27.986;2023-02-05T11:46:04;24.43;;;5.47;;
32826;SDS011;51059;42.058;27.986;2023-02-05T11:48:33;16.53;;;4.03;;
32826;SDS011;51059;42.058;27.986;2023-02-05T11:51:03;18.03;;;4.93;;
32826;SDS011;51059;42.058;27.986;2023-02-05T11:53:30;15.57;;;4.90;;
32826;SDS011;51059;42.058;27.986;2023-02-05T11:55:59;16.43;;;4.73;;
32826;SDS011;51059;42.058;27.986;2023-02-05T11:58:27;10.03;;;4.27;;
32826;SDS011;51059;42.058;27.986;2023-02-05T12:04:13;8.30;;;4.03;;
32826;SDS011;51059;42.058;27.986;2023-02-05T12:09:19;17.40;;;4.63;;
32826;SDS011;51059;42.058;27.986;2023-02-05T12:22:39;27.43;;;6.33;;
32826;SDS011;51059;42.058;27.986;2023-02-05T12:25:14;15.40;;;5.03;;
32826;SDS011;51059;42.058;27.986;2023-02-05T12:30:53;15.83;;;5.50;;
32826;SDS011;51059;42.058;27.986;2023-02-05T12:41:37;19.87;;;5.53;;
32826;SDS011;51059;42.058;27.986;2023-02-05T12:50:09;22.07;;;6.17;;
32826;SDS011;51059;42.058;27.986;2023-02-05T12:53:10;20.00;;;5.83;;
32826;SDS011;51059;42.058;27.986;2023-02-05T12:59:25;12.57;;;5.17;;
32826;SDS011;51059;42.058;27.986;2023-02-05T13:01:55;13.67;;;4.70;;
32826;SDS011;51059;42.058;27.986;2023-02-05T13:04:42;11.67;;;4.90;;
32826;SDS011;51059;42.058;27.986;2023-02-05T13:07:20;14.37;;;4.33;;
32826;SDS011;51059;42.058;27.986;2023-02-05T13:10:13;15.93;;;5.70;;
32826;SDS011;51059;42.058;27.986;2023-02-05T13:12:44;21.67;;;4.47;;
32826;SDS011;51059;42.058;27.986;2023-02-05T13:15:23;13.23;;;4.67;;
32826;SDS011;51059;42.058;27.986;2023-02-05T13:18:18;13.60;;;5.10;;
32826;SDS011;51059;42.058;27.986;2023-02-05T13:20:51;9.87;;;4.43;;
32826;SDS011;51059;42.058;27.986;2023-02-05T13:23:37;9.97;;;4.73;;
32826;SDS011;51059;42.058;27.986;2023-02-05T13:26:27;20.67;;;5.70;;
32826;SDS011;51059;42.058;27.986;2023-02-05T13:29:14;12.53;;;4.77;;
32826;SDS011;51059;42.058;27.986;2023-02-05T13:31:42;17.70;;;5.63;;
32826;SDS011;51059;42.058;27.986;2023-02-05T13:34:13;18.07;;;5.07;;
32826;SDS011;51059;42.058;27.986;2023-02-05T13:37:24;16.90;;;5.00;;
32826;SDS011;51059;42.058;27.986;2023-02-05T13:39:44;12.23;;;4.60;;
32826;SDS011;51059;42.058;27.986;2023-02-05T13:45:27;25.47;;;7.70;;
32826;SDS011;51059;42.058;27.986;2023-02-05T13:51:24;20.67;;;6.27;;
32826;SDS011;51059;42.058;27.986;2023-02-05T13:59:32;13.43;;;4.27;;
32826;SDS011;51059;42.058;27.986;2023-02-05T14:02:53;11.47;;;5.30;;
32826;SDS011;51059;42.058;27.986;2023-02-05T14:05:29;17.87;;;5.33;;
32826;SDS011;51059;42.058;27.986;2023-02-05T14:07:57;17.10;;;6.13;;
32826;SDS011;51059;42.058;27.986;2023-02-05T14:10:39;19.63;;;6.27;;
32826;SDS011;51059;42.058;27.986;2023-02-05T14:16:31;17.07;;;6.73;;
32826;SDS011;51059;42.058;27.986;2023-02-05T14:24:03;21.13;;;5.40;;
32826;SDS011;51059;42.058;27.986;2023-02-05T14:27:02;16.17;;;5.77;;
32826;SDS011;51059;42.058;27.986;2023-02-05T14:32:10;20.03;;;6.70;;
32826;SDS011;51059;42.058;27.986;2023-02-05T14:37:03;23.37;;;6.40;;
32826;SDS011;51059;42.058;27.986;2023-02-05T14:39:32;11.50;;;4.90;;
32826;SDS011;51059;42.058;27.986;2023-02-05T14:41:59;16.13;;;6.07;;
32826;SDS011;51059;42.058;27.986;2023-02-05T14:44:30;17.77;;;5.27;;
32826;SDS011;51059;42.058;27.986;2023-02-05T14:51:59;16.17;;;4.27;;
32826;SDS011;51059;42.058;27.986;2023-02-05T14:54:28;12.27;;;4.40;;
32826;SDS011;51059;42.058;27.986;2023-02-05T14:59:41;8.33;;;4.13;;
32826;SDS011;51059;42.058;27.986;2023-02-05T15:02:44;7.73;;;4.10;;
32826;SDS011;51059;42.058;27.986;2023-02-05T15:05:47;6.97;;;3.17;;
32826;SDS011;51059;42.058;27.986;2023-02-05T15:08:19;9.27;;;4.20;;
32826;SDS011;51059;42.058;27.986;2023-02-05T15:11:10;27.53;;;6.93;;
32826;SDS011;51059;42.058;27.986;2023-02-05T15:16:43;8.40;;;3.50;;
32826;SDS011;51059;42.058;27.986;2023-02-05T15:19:09;8.27;;;3.37;;
32826;SDS011;51059;42.058;27.986;2023-02-05T15:21:38;10.20;;;3.47;;
32826;SDS011;51059;42.058;27.986;2023-02-05T15:24:08;13.97;;;3.87;;
32826;SDS011;51059;42.058;27.986;2023-02-05T15:26:41;20.73;;;4.60;;
32826;SDS011;51059;42.058;27.986;2023-02-05T15:32:07;9.10;;;3.17;;
32826;SDS011;51059;42.058;27.986;2023-02-05T15:37:22;13.53;;;5.27;;
32826;SDS011;51059;42.058;27.986;2023-02-05T15:42:39;13.27;;;4.87;;
32826;SDS011;51059;42.058;27.986;2023-02-05T15:47:58;13.57;;;4.60;;
32826;SDS011;51059;42.058;27.986;2023-02-05T15:50:30;9.87;;;3.67;;
32826;SDS011;51059;42.058;27.986;2023-02-05T15:52:57;10.90;;;5.17;;
32826;SDS011;51059;42.058;27.986;2023-02-05T15:55:23;13.70;;;5.23;;
32826;SDS011;51059;42.058;27.986;2023-02-05T15:57:53;15.23;;;4.13;;
32826;SDS011;51059;42.058;27.986;2023-02-05T16:00:25;14.07;;;3.67;;
32826;SDS011;51059;42.058;27.986;2023-02-05T16:02:56;11.37;;;4.20;;
32826;SDS011;51059;42.058;27.986;2023-02-05T16:05:24;8.30;;;3.77;;
32826;SDS011;51059;42.058;27.986;2023-02-05T16:07:50;13.93;;;5.47;;
32826;SDS011;51059;42.058;27.986;2023-02-05T16:10:22;11.20;;;4.60;;
32826;SDS011;51059;42.058;27.986;2023-02-05T16:12:56;15.67;;;5.60;;
32826;SDS011;51059;42.058;27.986;2023-02-05T16:15:22;14.27;;;4.77;;
32826;SDS011;51059;42.058;27.986;2023-02-05T16:17:55;12.87;;;5.00;;
32826;SDS011;51059;42.058;27.986;2023-02-05T16:20:28;17.10;;;5.73;;
32826;SDS011;51059;42.058;27.986;2023-02-05T16:22:57;8.47;;;4.50;;
32826;SDS011;51059;42.058;27.986;2023-02-05T16:25:36;12.67;;;5.20;;
32826;SDS011;51059;42.058;27.986;2023-02-05T16:28:16;11.77;;;4.20;;
32826;SDS011;51059;42.058;27.986;2023-02-05T16:30:44;14.70;;;4.43;;
32826;SDS011;51059;42.058;27.986;2023-02-05T16:36:20;14.60;;;4.93;;
32826;SDS011;51059;42.058;27.986;2023-02-05T16:38:57;15.37;;;5.10;;
32826;SDS011;51059;42.058;27.986;2023-02-05T16:41:25;15.57;;;5.53;;
32826;SDS011;51059;42.058;27.986;2023-02-05T16:43:52;15.53;;;6.23;;
32826;SDS011;51059;42.058;27.986;2023-02-05T16:54:27;10.37;;;3.50;;
32826;SDS011;51059;42.058;27.986;2023-02-05T16:57:00;9.47;;;4.80;;
32826;SDS011;51059;42.058;27.986;2023-02-05T17:00:03;17.40;;;4.87;;
32826;SDS011;51059;42.058;27.986;2023-02-05T17:04:55;13.93;;;5.67;;
32826;SDS011;51059;42.058;27.986;2023-02-05T17:07:22;18.03;;;7.20;;
32826;SDS011;51059;42.058;27.986;2023-02-05T17:09:48;20.30;;;5.80;;
32826;SDS011;51059;42.058;27.986;2023-02-05T17:17:27;10.20;;;5.07;;
32826;SDS011;51059;42.058;27.986;2023-02-05T17:23:17;14.80;;;5.03;;
32826;SDS011;51059;42.058;27.986;2023-02-05T17:28:34;12.10;;;4.63;;
32826;SDS011;51059;42.058;27.986;2023-02-05T17:31:06;11.63;;;4.47;;
32826;SDS011;51059;42.058;27.986;2023-02-05T17:33:32;9.40;;;4.23;;
32826;SDS011;51059;42.058;27.986;2023-02-05T17:35:57;13.53;;;5.00;;
32826;SDS011;51059;42.058;27.986;2023-02-05T17:38:23;13.63;;;4.20;;
32826;SDS011;51059;42.058;27.986;2023-02-05T17:40:49;12.23;;;4.83;;
32826;SDS011;51059;42.058;27.986;2023-02-05T17:43:14;14.47;;;5.33;;
32826;SDS011;51059;42.058;27.986;2023-02-05T17:45:40;13.67;;;4.57;;
32826;SDS011;51059;42.058;27.986;2023-02-05T17:48:08;12.23;;;4.93;;
32826;SDS011;51059;42.058;27.986;2023-02-05T17:50:34;15.37;;;4.00;;
32826;SDS011;51059;42.058;27.986;2023-02-05T17:53:00;10.07;;;4.10;;
32826;SDS011;51059;42.058;27.986;2023-02-05T17:55:27;9.00;;;4.60;;
32826;SDS011;51059;42.058;27.986;2023-02-05T17:57:53;9.47;;;3.63;;
32826;SDS011;51059;42.058;27.986;2023-02-05T18:00:20;11.37;;;4.13;;